NCAR-RAP Real-Time Weather Data

Output produced by METARs form (12 May 2021  11:06 UTC)
found at http://weather.rap.ucar.edu/surface/
 
KALO 121054Z 00000KT 10SM CLR 01/M01 A3043 RMK AO2 SLP310 T00111011
KALO 120954Z AUTO 00000KT 10SM CLR 01/M02 A3042 RMK AO2 SLP306 T00061022
KALO 120854Z AUTO 00000KT 10SM CLR 02/M01 A3041 RMK AO2 SLP302 T00221006 53001
KALO 120754Z AUTO 00000KT 10SM CLR 02/M01 A3041 RMK AO2 SLP301 T00171011
KALO 120654Z AUTO 00000KT 10SM CLR 04/M01 A3041 RMK AO2 SLP301 T00391011
KALO 120554Z AUTO 00000KT 10SM CLR 04/M01 A3041 RMK AO2 SLP302 T00391011 10156 20039 401670017 51009
KALO 120454Z AUTO 03003KT 10SM CLR 06/M02 A3040 RMK AO2 SLP299 T00611017
KALO 120354Z AUTO 07003KT 10SM CLR 07/M02 A3039 RMK AO2 SLP295 T00721017
KALO 120254Z AUTO 00000KT 10SM CLR 08/M01 A3038 RMK AO2 SLP291 T00831006 53017
KALO 120154Z AUTO 12004KT 10SM CLR 12/M03 A3036 RMK AO2 SLP284 T01171028
KALO 120054Z 08004KT 10SM CLR 13/M03 A3034 RMK AO2 SLP278 T01331028
KALO 112354Z 00000KT 10SM CLR 16/M06 A3033 RMK AO2 SLP275 T01561056 10167 20133 53005
KALO 112254Z 03005KT 10SM FEW085 16/M04 A3032 RMK AO2 SLP272 T01611044
KALO 112154Z 08008KT 10SM FEW090 16/M04 A3031 RMK AO2 SLP269 T01611039
KALO 112054Z 10008KT 10SM CLR 16/M04 A3032 RMK AO2 SLP270 T01561044 56012